sensor_id;sensor_type;location;lat;lon;timestamp;pressure;altitude;pressure_sealevel;temperature;humidity
6532;BME280;3299;42.004;24.868;2024-03-02T00:00:05;97725.34;;;8.55;100.00
6532;BME280;3299;42.004;24.868;2024-03-02T00:02:45;97746.78;;;8.68;100.00
6532;BME280;3299;42.004;24.868;2024-03-02T00:05:15;97781.13;;;8.92;100.00
6532;BME280;3299;42.004;24.868;2024-03-02T00:07:46;97794.88;;;9.03;100.00
6532;BME280;3299;42.004;24.868;2024-03-02T00:10:20;97801.69;;;9.04;100.00
6532;BME280;3299;42.004;24.868;2024-03-02T00:12:48;97720.97;;;8.44;100.00
6532;BME280;3299;42.004;24.868;2024-03-02T00:18:01;97758.75;;;8.56;100.00
6532;BME280;3299;42.004;24.868;2024-03-02T00:20:27;97753.94;;;8.52;100.00
6532;BME280;3299;42.004;24.868;2024-03-02T00:23:04;97800.41;;;8.86;100.00
6532;BME280;3299;42.004;24.868;2024-03-02T00:25:52;97717.84;;;8.52;100.00
6532;BME280;3299;42.004;24.868;2024-03-02T00:28:25;97808.50;;;9.05;100.00
6532;BME280;3299;42.004;24.868;2024-03-02T00:30:57;97804.06;;;9.07;100.00
6532;BME280;3299;42.004;24.868;2024-03-02T00:33:23;97739.84;;;8.68;100.00
6532;BME280;3299;42.004;24.868;2024-03-02T00:35:49;97765.69;;;8.79;100.00
6532;BME280;3299;42.004;24.868;2024-03-02T00:38:15;97800.22;;;8.89;100.00
6532;BME280;3299;42.004;24.868;2024-03-02T00:40:41;97744.19;;;8.68;100.00
6532;BME280;3299;42.004;24.868;2024-03-02T00:45:44;97710.22;;;8.50;100.00
6532;BME280;3299;42.004;24.868;2024-03-02T00:48:09;97704.25;;;8.50;100.00
6532;BME280;3299;42.004;24.868;2024-03-02T00:50:35;97781.78;;;9.06;100.00
6532;BME280;3299;42.004;24.868;2024-03-02T00:53:01;97783.84;;;9.01;100.00
6532;BME280;3299;42.004;24.868;2024-03-02T00:55:27;97701.94;;;8.58;100.00
6532;BME280;3299;42.004;24.868;2024-03-02T00:57:53;97794.69;;;9.06;100.00
6532;BME280;3299;42.004;24.868;2024-03-02T01:00:19;97774.03;;;8.83;100.00
6532;BME280;3299;42.004;24.868;2024-03-02T01:02:44;97685.97;;;8.29;100.00
6532;BME280;3299;42.004;24.868;2024-03-02T01:05:11;97764.69;;;8.69;100.00
6532;BME280;3299;42.004;24.868;2024-03-02T01:07:38;97678.97;;;8.19;100.00
6532;BME280;3299;42.004;24.868;2024-03-02T01:10:04;97688.25;;;8.21;100.00
6532;BME280;3299;42.004;24.868;2024-03-02T01:12:29;97686.84;;;8.41;100.00
6532;BME280;3299;42.004;24.868;2024-03-02T01:14:55;97714.28;;;8.65;100.00
6532;BME280;3299;42.004;24.868;2024-03-02T01:17:21;97762.03;;;8.94;100.00
6532;BME280;3299;42.004;24.868;2024-03-02T01:19:46;97726.44;;;8.63;100.00
6532;BME280;3299;42.004;24.868;2024-03-02T01:22:11;97749.22;;;8.69;100.00
6532;BME280;3299;42.004;24.868;2024-03-02T01:24:37;97691.31;;;8.39;100.00
6532;BME280;3299;42.004;24.868;2024-03-02T01:27:03;97727.13;;;8.54;100.00
6532;BME280;3299;42.004;24.868;2024-03-02T01:29:29;97720.03;;;8.45;100.00
6532;BME280;3299;42.004;24.868;2024-03-02T01:31:54;97725.25;;;8.56;100.00
6532;BME280;3299;42.004;24.868;2024-03-02T01:34:19;97672.00;;;8.08;100.00
6532;BME280;3299;42.004;24.868;2024-03-02T01:36:45;97668.47;;;8.09;100.00
6532;BME280;3299;42.004;24.868;2024-03-02T01:39:12;97735.78;;;8.53;100.00
6532;BME280;3299;42.004;24.868;2024-03-02T01:41:37;97662.63;;;8.07;100.00
6532;BME280;3299;42.004;24.868;2024-03-02T01:44:04;97752.88;;;8.67;100.00
6532;BME280;3299;42.004;24.868;2024-03-02T01:46:29;97681.03;;;8.26;100.00
6532;BME280;3299;42.004;24.868;2024-03-02T01:48:55;97709.63;;;8.47;100.00
6532;BME280;3299;42.004;24.868;2024-03-02T01:51:20;97705.78;;;8.52;100.00
6532;BME280;3299;42.004;24.868;2024-03-02T01:53:46;97676.91;;;8.24;100.00
6532;BME280;3299;42.004;24.868;2024-03-02T01:56:11;97752.63;;;8.70;100.00
6532;BME280;3299;42.004;24.868;2024-03-02T01:58:37;97747.03;;;8.76;100.00
6532;BME280;3299;42.004;24.868;2024-03-02T02:01:03;97723.72;;;8.54;100.00
6532;BME280;3299;42.004;24.868;2024-03-02T02:03:28;97668.56;;;8.20;100.00
6532;BME280;3299;42.004;24.868;2024-03-02T02:05:54;97708.56;;;8.49;100.00
6532;BME280;3299;42.004;24.868;2024-03-02T02:08:19;97755.09;;;8.71;100.00
6532;BME280;3299;42.004;24.868;2024-03-02T02:10:45;97657.97;;;8.12;100.00
6532;BME280;3299;42.004;24.868;2024-03-02T02:13:10;97688.88;;;8.25;100.00
6532;BME280;3299;42.004;24.868;2024-03-02T02:15:36;97732.38;;;8.53;100.00
6532;BME280;3299;42.004;24.868;2024-03-02T02:18:01;97753.72;;;8.55;100.00
6532;BME280;3299;42.004;24.868;2024-03-02T02:20:28;97651.81;;;8.02;100.00
6532;BME280;3299;42.004;24.868;2024-03-02T02:22:58;97723.22;;;8.49;100.00
6532;BME280;3299;42.004;24.868;2024-03-02T02:25:24;97695.34;;;8.18;100.00
6532;BME280;3299;42.004;24.868;2024-03-02T02:27:49;97676.22;;;7.97;100.00
6532;BME280;3299;42.004;24.868;2024-03-02T02:30:26;97695.69;;;8.01;100.00
6532;BME280;3299;42.004;24.868;2024-03-02T02:32:52;97742.88;;;8.26;100.00
6532;BME280;3299;42.004;24.868;2024-03-02T02:35:17;97702.38;;;8.16;100.00
6532;BME280;3299;42.004;24.868;2024-03-02T02:37:44;97745.72;;;8.34;100.00
6532;BME280;3299;42.004;24.868;2024-03-02T02:40:11;97655.16;;;7.79;100.00
6532;BME280;3299;42.004;24.868;2024-03-02T02:42:36;97665.97;;;7.84;100.00
6532;BME280;3299;42.004;24.868;2024-03-02T02:45:02;97706.69;;;8.15;100.00
6532;BME280;3299;42.004;24.868;2024-03-02T02:47:27;97745.50;;;8.50;100.00
6532;BME280;3299;42.004;24.868;2024-03-02T02:49:54;97693.09;;;8.13;100.00
6532;BME280;3299;42.004;24.868;2024-03-02T02:52:20;97708.22;;;8.18;100.00
6532;BME280;3299;42.004;24.868;2024-03-02T02:54:46;97736.28;;;8.22;100.00
6532;BME280;3299;42.004;24.868;2024-03-02T02:57:12;97703.16;;;7.93;100.00
6532;BME280;3299;42.004;24.868;2024-03-02T02:59:37;97654.28;;;7.68;100.00
6532;BME280;3299;42.004;24.868;2024-03-02T03:02:02;97701.47;;;8.04;100.00
6532;BME280;3299;42.004;24.868;2024-03-02T03:04:28;97671.66;;;7.77;100.00
6532;BME280;3299;42.004;24.868;2024-03-02T03:06:53;97664.69;;;7.66;100.00
6532;BME280;3299;42.004;24.868;2024-03-02T03:09:18;97677.44;;;7.68;100.00
6532;BME280;3299;42.004;24.868;2024-03-02T03:11:44;97693.09;;;7.77;100.00
6532;BME280;3299;42.004;24.868;2024-03-02T03:14:09;97654.38;;;7.66;100.00
6532;BME280;3299;42.004;24.868;2024-03-02T03:16:35;97667.97;;;7.68;100.00
6532;BME280;3299;42.004;24.868;2024-03-02T03:19:00;97655.41;;;7.64;100.00
6532;BME280;3299;42.004;24.868;2024-03-02T03:21:26;97728.44;;;8.11;100.00
6532;BME280;3299;42.004;24.868;2024-03-02T03:23:51;97728.84;;;8.18;100.00
6532;BME280;3299;42.004;24.868;2024-03-02T03:26:17;97722.47;;;8.11;100.00
6532;BME280;3299;42.004;24.868;2024-03-02T03:28:42;97742.16;;;8.24;100.00
6532;BME280;3299;42.004;24.868;2024-03-02T03:31:07;97704.25;;;8.01;100.00
6532;BME280;3299;42.004;24.868;2024-03-02T03:33:33;97719.56;;;8.15;100.00
6532;BME280;3299;42.004;24.868;2024-03-02T03:35:58;97699.81;;;8.03;100.00
6532;BME280;3299;42.004;24.868;2024-03-02T03:38:23;97703.94;;;8.06;100.00
6532;BME280;3299;42.004;24.868;2024-03-02T03:40:49;97657.66;;;7.81;100.00
6532;BME280;3299;42.004;24.868;2024-03-02T03:43:14;97698.19;;;8.02;100.00
6532;BME280;3299;42.004;24.868;2024-03-02T03:45:40;97731.03;;;8.24;100.00
6532;BME280;3299;42.004;24.868;2024-03-02T03:48:05;97643.22;;;7.78;100.00
6532;BME280;3299;42.004;24.868;2024-03-02T03:50:31;97682.94;;;7.99;100.00
6532;BME280;3299;42.004;24.868;2024-03-02T03:52:56;97733.34;;;8.39;100.00
6532;BME280;3299;42.004;24.868;2024-03-02T03:55:21;97656.78;;;7.93;100.00
6532;BME280;3299;42.004;24.868;2024-03-02T03:57:47;97701.34;;;8.18;100.00
6532;BME280;3299;42.004;24.868;2024-03-02T04:00:12;97683.75;;;8.12;100.00
6532;BME280;3299;42.004;24.868;2024-03-02T04:02:38;97745.59;;;8.48;100.00
6532;BME280;3299;42.004;24.868;2024-03-02T04:05:04;97739.50;;;8.49;100.00
6532;BME280;3299;42.004;24.868;2024-03-02T04:07:34;97693.22;;;8.24;100.00
6532;BME280;3299;42.004;24.868;2024-03-02T04:10:08;97738.63;;;8.61;100.00
6532;BME280;3299;42.004;24.868;2024-03-02T04:12:35;97675.06;;;8.13;100.00
6532;BME280;3299;42.004;24.868;2024-03-02T04:15:02;97641.94;;;7.96;100.00
6532;BME280;3299;42.004;24.868;2024-03-02T04:17:29;97716.50;;;8.23;100.00
6532;BME280;3299;42.004;24.868;2024-03-02T04:19:56;97750.09;;;8.21;100.00
6532;BME280;3299;42.004;24.868;2024-03-02T04:22:21;97754.50;;;8.19;100.00
6532;BME280;3299;42.004;24.868;2024-03-02T04:24:46;97744.53;;;8.15;100.00
6532;BME280;3299;42.004;24.868;2024-03-02T04:27:12;97752.13;;;8.16;100.00
6532;BME280;3299;42.004;24.868;2024-03-02T04:29:37;97648.63;;;7.63;100.00
6532;BME280;3299;42.004;24.868;2024-03-02T04:32:03;97734.22;;;8.15;100.00
6532;BME280;3299;42.004;24.868;2024-03-02T04:34:28;97724.53;;;8.18;100.00
6532;BME280;3299;42.004;24.868;2024-03-02T04:36:54;97638.59;;;7.71;100.00
6532;BME280;3299;42.004;24.868;2024-03-02T04:39:19;97700.84;;;8.01;100.00
6532;BME280;3299;42.004;24.868;2024-03-02T04:41:44;97686.25;;;8.01;100.00
6532;BME280;3299;42.004;24.868;2024-03-02T04:44:10;97738.06;;;8.22;100.00
6532;BME280;3299;42.004;24.868;2024-03-02T04:46:36;97666.50;;;7.89;100.00
6532;BME280;3299;42.004;24.868;2024-03-02T04:49:01;97690.72;;;8.10;100.00
6532;BME280;3299;42.004;24.868;2024-03-02T04:51:27;97671.22;;;7.95;100.00
6532;BME280;3299;42.004;24.868;2024-03-02T04:53:52;97738.72;;;8.36;100.00
6532;BME280;3299;42.004;24.868;2024-03-02T04:56:18;97738.06;;;8.45;100.00
6532;BME280;3299;42.004;24.868;2024-03-02T04:59:02;97704.94;;;8.28;100.00
6532;BME280;3299;42.004;24.868;2024-03-02T05:01:27;97684.09;;;8.19;100.00
6532;BME280;3299;42.004;24.868;2024-03-02T05:03:52;97752.66;;;8.57;100.00
6532;BME280;3299;42.004;24.868;2024-03-02T05:06:18;97760.81;;;8.64;100.00
6532;BME280;3299;42.004;24.868;2024-03-02T05:08:43;97701.44;;;8.29;100.00
6532;BME280;3299;42.004;24.868;2024-03-02T05:11:10;97704.50;;;8.34;100.00
6532;BME280;3299;42.004;24.868;2024-03-02T05:13:54;97715.97;;;8.54;100.00
6532;BME280;3299;42.004;24.868;2024-03-02T05:16:19;97712.44;;;8.44;100.00
6532;BME280;3299;42.004;24.868;2024-03-02T05:18:45;97704.78;;;8.42;100.00
6532;BME280;3299;42.004;24.868;2024-03-02T05:21:10;97672.38;;;8.27;100.00
6532;BME280;3299;42.004;24.868;2024-03-02T05:23:36;97720.94;;;8.57;100.00
6532;BME280;3299;42.004;24.868;2024-03-02T05:26:02;97724.63;;;8.53;100.00
6532;BME280;3299;42.004;24.868;2024-03-02T05:28:28;97706.44;;;8.43;100.00
6532;BME280;3299;42.004;24.868;2024-03-02T05:30:53;97740.78;;;8.67;100.00
6532;BME280;3299;42.004;24.868;2024-03-02T05:33:18;97710.66;;;8.44;100.00
6532;BME280;3299;42.004;24.868;2024-03-02T05:35:47;97687.63;;;8.30;100.00
6532;BME280;3299;42.004;24.868;2024-03-02T05:38:15;97765.63;;;8.68;100.00
6532;BME280;3299;42.004;24.868;2024-03-02T05:40:40;97727.50;;;8.37;100.00
6532;BME280;3299;42.004;24.868;2024-03-02T05:43:06;97683.13;;;8.09;100.00
6532;BME280;3299;42.004;24.868;2024-03-02T05:45:31;97674.41;;;7.99;100.00
6532;BME280;3299;42.004;24.868;2024-03-02T05:47:56;97759.69;;;8.55;100.00
6532;BME280;3299;42.004;24.868;2024-03-02T05:50:22;97669.13;;;8.00;100.00
6532;BME280;3299;42.004;24.868;2024-03-02T05:52:47;97684.16;;;8.06;100.00
6532;BME280;3299;42.004;24.868;2024-03-02T05:55:13;97728.63;;;8.33;100.00
6532;BME280;3299;42.004;24.868;2024-03-02T05:57:38;97767.34;;;8.57;100.00
6532;BME280;3299;42.004;24.868;2024-03-02T06:00:10;97773.97;;;8.72;100.00
6532;BME280;3299;42.004;24.868;2024-03-02T06:02:39;97770.09;;;8.66;100.00
6532;BME280;3299;42.004;24.868;2024-03-02T06:05:06;97767.50;;;8.66;100.00
6532;BME280;3299;42.004;24.868;2024-03-02T06:07:32;97708.50;;;8.38;100.00
6532;BME280;3299;42.004;24.868;2024-03-02T06:09:57;97729.63;;;8.43;100.00
6532;BME280;3299;42.004;24.868;2024-03-02T06:12:23;97714.63;;;8.25;100.00
6532;BME280;3299;42.004;24.868;2024-03-02T06:14:49;97778.22;;;8.73;100.00
6532;BME280;3299;42.004;24.868;2024-03-02T06:17:14;97780.47;;;8.77;100.00
6532;BME280;3299;42.004;24.868;2024-03-02T06:19:40;97777.78;;;8.79;100.00
6532;BME280;3299;42.004;24.868;2024-03-02T06:22:05;97743.28;;;8.56;100.00
6532;BME280;3299;42.004;24.868;2024-03-02T06:24:31;97702.25;;;8.30;100.00
6532;BME280;3299;42.004;24.868;2024-03-02T06:26:56;97781.59;;;8.73;100.00
6532;BME280;3299;42.004;24.868;2024-03-02T06:29:22;97781.16;;;8.79;100.00
6532;BME280;3299;42.004;24.868;2024-03-02T06:31:47;97737.44;;;8.54;100.00
6532;BME280;3299;42.004;24.868;2024-03-02T06:34:12;97774.19;;;8.92;100.00
6532;BME280;3299;42.004;24.868;2024-03-02T06:36:38;97791.75;;;9.11;100.00
6532;BME280;3299;42.004;24.868;2024-03-02T06:39:05;97731.78;;;8.73;100.00
6532;BME280;3299;42.004;24.868;2024-03-02T06:41:31;97748.78;;;8.75;100.00
6532;BME280;3299;42.004;24.868;2024-03-02T06:43:56;97736.28;;;8.58;100.00
6532;BME280;3299;42.004;24.868;2024-03-02T06:46:25;97825.09;;;9.14;100.00
6532;BME280;3299;42.004;24.868;2024-03-02T06:48:50;97793.19;;;8.91;100.00
6532;BME280;3299;42.004;24.868;2024-03-02T06:51:16;97826.56;;;9.05;100.00
6532;BME280;3299;42.004;24.868;2024-03-02T06:53:41;97814.31;;;8.96;100.00
6532;BME280;3299;42.004;24.868;2024-03-02T06:56:07;97728.69;;;8.44;100.00
6532;BME280;3299;42.004;24.868;2024-03-02T06:58:33;97781.97;;;8.56;100.00
6532;BME280;3299;42.004;24.868;2024-03-02T07:00:58;97708.75;;;8.35;100.00
6532;BME280;3299;42.004;24.868;2024-03-02T07:03:25;97698.88;;;8.53;100.00
6532;BME280;3299;42.004;24.868;2024-03-02T07:05:51;97742.78;;;8.98;100.00
6532;BME280;3299;42.004;24.868;2024-03-02T07:08:16;97778.09;;;9.32;100.00
6532;BME280;3299;42.004;24.868;2024-03-02T07:10:42;97789.47;;;9.30;100.00
6532;BME280;3299;42.004;24.868;2024-03-02T07:13:07;97810.97;;;9.30;100.00
6532;BME280;3299;42.004;24.868;2024-03-02T07:15:33;97725.69;;;8.74;100.00
6532;BME280;3299;42.004;24.868;2024-03-02T07:18:30;97812.09;;;9.26;100.00
6532;BME280;3299;42.004;24.868;2024-03-02T07:20:59;97755.28;;;8.81;100.00
6532;BME280;3299;42.004;24.868;2024-03-02T07:23:26;97738.19;;;8.67;100.00
6532;BME280;3299;42.004;24.868;2024-03-02T07:25:55;97826.50;;;9.18;100.00
6532;BME280;3299;42.004;24.868;2024-03-02T07:28:24;97758.09;;;8.89;100.00
6532;BME280;3299;42.004;24.868;2024-03-02T07:31:03;97795.22;;;9.22;100.00
6532;BME280;3299;42.004;24.868;2024-03-02T07:33:30;97779.00;;;9.20;100.00
6532;BME280;3299;42.004;24.868;2024-03-02T07:35:55;97776.81;;;9.27;100.00
6532;BME280;3299;42.004;24.868;2024-03-02T07:38:21;97761.47;;;9.36;100.00
6532;BME280;3299;42.004;24.868;2024-03-02T07:40:48;97699.78;;;9.10;100.00
6532;BME280;3299;42.004;24.868;2024-03-02T07:43:17;97693.09;;;9.07;100.00
6532;BME280;3299;42.004;24.868;2024-03-02T07:45:43;97705.94;;;9.20;100.00
6532;BME280;3299;42.004;24.868;2024-03-02T07:48:08;97809.88;;;9.67;100.00
6532;BME280;3299;42.004;24.868;2024-03-02T07:50:34;97827.47;;;9.62;100.00
6532;BME280;3299;42.004;24.868;2024-03-02T07:53:01;97748.34;;;9.05;100.00
6532;BME280;3299;42.004;24.868;2024-03-02T07:55:26;97801.38;;;9.43;100.00
6532;BME280;3299;42.004;24.868;2024-03-02T07:57:52;97710.31;;;9.07;100.00
6532;BME280;3299;42.004;24.868;2024-03-02T08:00:18;97751.13;;;9.36;100.00
6532;BME280;3299;42.004;24.868;2024-03-02T08:02:43;97816.47;;;9.71;100.00
6532;BME280;3299;42.004;24.868;2024-03-02T08:05:09;97734.19;;;9.21;100.00
6532;BME280;3299;42.004;24.868;2024-03-02T08:07:35;97757.28;;;9.46;100.00
6532;BME280;3299;42.004;24.868;2024-03-02T08:10:00;97734.19;;;9.21;100.00
6532;BME280;3299;42.004;24.868;2024-03-02T08:12:25;97757.47;;;9.43;100.00
6532;BME280;3299;42.004;24.868;2024-03-02T08:14:51;97714.84;;;9.27;100.00
6532;BME280;3299;42.004;24.868;2024-03-02T08:17:16;97735.41;;;9.28;100.00
6532;BME280;3299;42.004;24.868;2024-03-02T08:19:42;97757.69;;;9.29;100.00
6532;BME280;3299;42.004;24.868;2024-03-02T08:22:08;97763.09;;;9.37;100.00
6532;BME280;3299;42.004;24.868;2024-03-02T08:24:33;97804.94;;;9.53;100.00
6532;BME280;3299;42.004;24.868;2024-03-02T08:26:59;97835.22;;;9.62;100.00
6532;BME280;3299;42.004;24.868;2024-03-02T08:29:25;97746.84;;;9.13;100.00
6532;BME280;3299;42.004;24.868;2024-03-02T08:31:50;97782.38;;;9.44;100.00
6532;BME280;3299;42.004;24.868;2024-03-02T08:34:16;97819.78;;;9.84;100.00
6532;BME280;3299;42.004;24.868;2024-03-02T08:36:41;97817.66;;;9.78;100.00
6532;BME280;3299;42.004;24.868;2024-03-02T08:39:08;97821.22;;;9.88;100.00
6532;BME280;3299;42.004;24.868;2024-03-02T08:41:41;97777.75;;;9.71;100.00
6532;BME280;3299;42.004;24.868;2024-03-02T08:44:07;97715.22;;;9.44;100.00
6532;BME280;3299;42.004;24.868;2024-03-02T08:46:33;97810.66;;;10.02;100.00
6532;BME280;3299;42.004;24.868;2024-03-02T08:48:58;97798.09;;;9.97;100.00
6532;BME280;3299;42.004;24.868;2024-03-02T08:51:25;97804.91;;;9.98;100.00
6532;BME280;3299;42.004;24.868;2024-03-02T08:53:50;97759.16;;;9.55;100.00
6532;BME280;3299;42.004;24.868;2024-03-02T08:56:16;97796.53;;;9.84;100.00
6532;BME280;3299;42.004;24.868;2024-03-02T08:58:41;97772.78;;;9.68;100.00
6532;BME280;3299;42.004;24.868;2024-03-02T09:01:07;97759.84;;;9.46;100.00
6532;BME280;3299;42.004;24.868;2024-03-02T09:03:34;97788.97;;;9.59;100.00
6532;BME280;3299;42.004;24.868;2024-03-02T09:06:00;97825.44;;;9.89;100.00
6532;BME280;3299;42.004;24.868;2024-03-02T09:08:25;97732.50;;;9.44;100.00
6532;BME280;3299;42.004;24.868;2024-03-02T09:10:51;97775.16;;;9.82;100.00
6532;BME280;3299;42.004;24.868;2024-03-02T09:13:17;97762.47;;;9.79;100.00
6532;BME280;3299;42.004;24.868;2024-03-02T09:15:42;97789.50;;;9.86;100.00
6532;BME280;3299;42.004;24.868;2024-03-02T09:18:09;97735.94;;;9.66;100.00
6532;BME280;3299;42.004;24.868;2024-03-02T09:20:35;97739.22;;;9.68;100.00
6532;BME280;3299;42.004;24.868;2024-03-02T09:23:00;97799.66;;;10.11;100.00
6532;BME280;3299;42.004;24.868;2024-03-02T09:25:26;97733.13;;;9.69;100.00
6532;BME280;3299;42.004;24.868;2024-03-02T09:27:51;97833.38;;;10.31;100.00
6532;BME280;3299;42.004;24.868;2024-03-02T09:30:17;97778.16;;;10.10;100.00
6532;BME280;3299;42.004;24.868;2024-03-02T09:32:42;97750.72;;;9.97;100.00
6532;BME280;3299;42.004;24.868;2024-03-02T09:35:08;97797.28;;;10.19;100.00
6532;BME280;3299;42.004;24.868;2024-03-02T09:37:34;97822.69;;;10.25;100.00
6532;BME280;3299;42.004;24.868;2024-03-02T09:40:00;97768.59;;;9.89;100.00
6532;BME280;3299;42.004;24.868;2024-03-02T09:42:25;97819.19;;;10.15;100.00
6532;BME280;3299;42.004;24.868;2024-03-02T09:44:53;97746.63;;;9.73;100.00
6532;BME280;3299;42.004;24.868;2024-03-02T09:47:18;97737.84;;;9.30;100.00
6532;BME280;3299;42.004;24.868;2024-03-02T09:49:43;97787.09;;;9.61;100.00
6532;BME280;3299;42.004;24.868;2024-03-02T09:52:10;97786.91;;;9.75;100.00
6532;BME280;3299;42.004;24.868;2024-03-02T09:54:36;97751.97;;;9.48;100.00
6532;BME280;3299;42.004;24.868;2024-03-02T09:57:02;97792.50;;;9.58;100.00
6532;BME280;3299;42.004;24.868;2024-03-02T09:59:28;97744.06;;;9.27;100.00
6532;BME280;3299;42.004;24.868;2024-03-02T10:01:58;97740.78;;;9.25;100.00
6532;BME280;3299;42.004;24.868;2024-03-02T10:04:25;97753.53;;;9.16;100.00
6532;BME280;3299;42.004;24.868;2024-03-02T10:06:51;97782.59;;;9.41;100.00
6532;BME280;3299;42.004;24.868;2024-03-02T10:09:34;97769.69;;;9.41;100.00
6532;BME280;3299;42.004;24.868;2024-03-02T10:12:07;97744.53;;;9.32;100.00
6532;BME280;3299;42.004;24.868;2024-03-02T10:14:36;97828.66;;;10.03;100.00
6532;BME280;3299;42.004;24.868;2024-03-02T10:17:07;97811.28;;;10.05;100.00
6532;BME280;3299;42.004;24.868;2024-03-02T10:19:33;97811.34;;;9.93;100.00
6532;BME280;3299;42.004;24.868;2024-03-02T10:22:01;97737.31;;;9.48;100.00
6532;BME280;3299;42.004;24.868;2024-03-02T10:24:35;97824.91;;;10.07;100.00
6532;BME280;3299;42.004;24.868;2024-03-02T10:27:02;97778.69;;;9.70;100.00
6532;BME280;3299;42.004;24.868;2024-03-02T10:29:29;97810.63;;;9.91;100.00
6532;BME280;3299;42.004;24.868;2024-03-02T10:31:58;97815.81;;;10.02;100.00
6532;BME280;3299;42.004;24.868;2024-03-02T10:34:27;97723.31;;;9.40;100.00
6532;BME280;3299;42.004;24.868;2024-03-02T10:36:52;97767.50;;;9.69;100.00
6532;BME280;3299;42.004;24.868;2024-03-02T10:39:18;97711.69;;;9.23;100.00
6532;BME280;3299;42.004;24.868;2024-03-02T10:41:44;97738.81;;;9.40;100.00
6532;BME280;3299;42.004;24.868;2024-03-02T10:44:11;97710.03;;;9.33;100.00
6532;BME280;3299;42.004;24.868;2024-03-02T10:46:37;97704.66;;;9.36;100.00
6532;BME280;3299;42.004;24.868;2024-03-02T10:49:04;97692.00;;;9.44;100.00
6532;BME280;3299;42.004;24.868;2024-03-02T10:51:32;97775.91;;;10.06;100.00
6532;BME280;3299;42.004;24.868;2024-03-02T10:53:59;97791.78;;;10.13;100.00
6532;BME280;3299;42.004;24.868;2024-03-02T10:56:33;97769.13;;;10.05;100.00
6532;BME280;3299;42.004;24.868;2024-03-02T10:59:09;97783.22;;;10.23;100.00
6532;BME280;3299;42.004;24.868;2024-03-02T11:01:39;97777.56;;;10.29;100.00
6532;BME280;3299;42.004;24.868;2024-03-02T11:04:09;97737.94;;;9.95;100.00
6532;BME280;3299;42.004;24.868;2024-03-02T11:06:35;97747.25;;;9.98;100.00
6532;BME280;3299;42.004;24.868;2024-03-02T11:09:07;97717.16;;;9.86;100.00
6532;BME280;3299;42.004;24.868;2024-03-02T11:11:40;97673.91;;;9.44;100.00
6532;BME280;3299;42.004;24.868;2024-03-02T11:14:07;97776.41;;;10.11;100.00
6532;BME280;3299;42.004;24.868;2024-03-02T11:16:38;97696.72;;;9.72;100.00
6532;BME280;3299;42.004;24.868;2024-03-02T11:19:08;97685.44;;;9.73;100.00
6532;BME280;3299;42.004;24.868;2024-03-02T11:21:35;97768.63;;;10.11;100.00
6532;BME280;3299;42.004;24.868;2024-03-02T11:24:00;97662.66;;;9.56;100.00
6532;BME280;3299;42.004;24.868;2024-03-02T11:26:46;97706.84;;;9.86;100.00
6532;BME280;3299;42.004;24.868;2024-03-02T11:34:38;97677.47;;;9.65;100.00
6532;BME280;3299;42.004;24.868;2024-03-02T11:37:10;97705.16;;;9.96;100.00
6532;BME280;3299;42.004;24.868;2024-03-02T11:39:38;97754.28;;;10.40;100.00
6532;BME280;3299;42.004;24.868;2024-03-02T11:42:06;97713.63;;;10.20;100.00
6532;BME280;3299;42.004;24.868;2024-03-02T11:44:36;97667.47;;;9.93;100.00
6532;BME280;3299;42.004;24.868;2024-03-02T11:47:05;97679.81;;;10.12;100.00
6532;BME280;3299;42.004;24.868;2024-03-02T11:49:41;97759.84;;;10.67;100.00
6532;BME280;3299;42.004;24.868;2024-03-02T11:52:08;97667.81;;;10.00;100.00
6532;BME280;3299;42.004;24.868;2024-03-02T11:54:40;97749.78;;;10.53;100.00
6532;BME280;3299;42.004;24.868;2024-03-02T11:57:08;97670.88;;;10.16;100.00
6532;BME280;3299;42.004;24.868;2024-03-02T11:59:34;97684.38;;;10.30;100.00
6532;BME280;3299;42.004;24.868;2024-03-02T12:02:00;97749.16;;;10.71;100.00
6532;BME280;3299;42.004;24.868;2024-03-02T12:04:26;97667.81;;;10.33;100.00
6532;BME280;3299;42.004;24.868;2024-03-02T12:07:10;97751.81;;;10.92;100.00
6532;BME280;3299;42.004;24.868;2024-03-02T12:09:36;97659.22;;;10.32;100.00
6532;BME280;3299;42.004;24.868;2024-03-02T12:12:06;97672.19;;;10.53;100.00
6532;BME280;3299;42.004;24.868;2024-03-02T12:14:33;97667.72;;;10.55;100.00
6532;BME280;3299;42.004;24.868;2024-03-02T12:16:59;97693.03;;;10.72;100.00
6532;BME280;3299;42.004;24.868;2024-03-02T12:19:25;97676.31;;;10.55;100.00
6532;BME280;3299;42.004;24.868;2024-03-02T12:21:52;97730.94;;;10.73;100.00
6532;BME280;3299;42.004;24.868;2024-03-02T12:24:18;97650.38;;;10.35;100.00
6532;BME280;3299;42.004;24.868;2024-03-02T12:26:44;97679.00;;;10.54;100.00
6532;BME280;3299;42.004;24.868;2024-03-02T12:29:10;97710.88;;;10.86;100.00
6532;BME280;3299;42.004;24.868;2024-03-02T12:31:36;97649.50;;;10.56;100.00
6532;BME280;3299;42.004;24.868;2024-03-02T12:34:03;97668.13;;;10.71;100.00
6532;BME280;3299;42.004;24.868;2024-03-02T12:36:29;97704.50;;;10.90;100.00
6532;BME280;3299;42.004;24.868;2024-03-02T12:38:54;97715.53;;;10.71;100.00
6532;BME280;3299;42.004;24.868;2024-03-02T12:41:20;97688.47;;;10.44;100.00
6532;BME280;3299;42.004;24.868;2024-03-02T12:43:46;97664.97;;;10.25;100.00
6532;BME280;3299;42.004;24.868;2024-03-02T12:46:11;97719.91;;;10.60;100.00
6532;BME280;3299;42.004;24.868;2024-03-02T12:48:37;97713.75;;;10.29;100.00
6532;BME280;3299;42.004;24.868;2024-03-02T12:51:06;97724.66;;;10.44;100.00
6532;BME280;3299;42.004;24.868;2024-03-02T12:53:31;97684.84;;;10.02;100.00
6532;BME280;3299;42.004;24.868;2024-03-02T12:55:57;97655.38;;;9.83;100.00
6532;BME280;3299;42.004;24.868;2024-03-02T12:58:23;97695.09;;;10.04;100.00
6532;BME280;3299;42.004;24.868;2024-03-02T13:00:49;97699.19;;;10.17;100.00
6532;BME280;3299;42.004;24.868;2024-03-02T13:03:14;97742.97;;;10.52;100.00
6532;BME280;3299;42.004;24.868;2024-03-02T13:05:48;97707.28;;;10.24;100.00
6532;BME280;3299;42.004;24.868;2024-03-02T13:08:13;97702.00;;;10.25;100.00
6532;BME280;3299;42.004;24.868;2024-03-02T13:10:40;97687.91;;;10.29;100.00
6532;BME280;3299;42.004;24.868;2024-03-02T13:13:06;97674.63;;;10.23;100.00
6532;BME280;3299;42.004;24.868;2024-03-02T13:15:33;97665.56;;;10.17;100.00
6532;BME280;3299;42.004;24.868;2024-03-02T13:17:59;97704.66;;;10.46;100.00